sensor_id;sensor_type;location;lat;lon;timestamp;temperature;humidity
30244;DHT22;64022;53.652;9.792;2022-10-16T00:01:27;22.00;76.90
30244;DHT22;64022;53.652;9.792;2022-10-16T00:03:52;22.00;76.90
30244;DHT22;64022;53.652;9.792;2022-10-16T00:06:20;22.00;76.90
30244;DHT22;64022;53.652;9.792;2022-10-16T00:08:47;22.00;76.90
30244;DHT22;64022;53.652;9.792;2022-10-16T00:11:19;22.00;76.90
30244;DHT22;64022;53.652;9.792;2022-10-16T00:13:47;22.00;76.90
30244;DHT22;64022;53.652;9.792;2022-10-16T00:16:13;22.00;76.90
30244;DHT22;64022;53.652;9.792;2022-10-16T00:18:40;22.00;76.80
30244;DHT22;64022;53.652;9.792;2022-10-16T00:21:12;22.00;76.80
30244;DHT22;64022;53.652;9.792;2022-10-16T00:23:38;22.00;76.80
30244;DHT22;64022;53.652;9.792;2022-10-16T00:26:06;22.00;76.90
30244;DHT22;64022;53.652;9.792;2022-10-16T00:28:32;21.90;76.70
30244;DHT22;64022;53.652;9.792;2022-10-16T00:31:02;22.00;76.80
30244;DHT22;64022;53.652;9.792;2022-10-16T00:33:28;21.90;76.70
30244;DHT22;64022;53.652;9.792;2022-10-16T00:35:53;21.90;76.70
30244;DHT22;64022;53.652;9.792;2022-10-16T00:38:19;22.00;76.80
30244;DHT22;64022;53.652;9.792;2022-10-16T00:40:44;21.90;76.70
30244;DHT22;64022;53.652;9.792;2022-10-16T00:44:00;21.90;76.70
30244;DHT22;64022;53.652;9.792;2022-10-16T00:46:02;22.00;76.70
30244;DHT22;64022;53.652;9.792;2022-10-16T00:48:28;21.90;76.70
30244;DHT22;64022;53.652;9.792;2022-10-16T00:50:54;21.90;76.70
30244;DHT22;64022;53.652;9.792;2022-10-16T00:53:20;21.90;76.70
30244;DHT22;64022;53.652;9.792;2022-10-16T00:55:46;21.90;76.60
30244;DHT22;64022;53.652;9.792;2022-10-16T00:58:12;21.90;76.60
30244;DHT22;64022;53.652;9.792;2022-10-16T01:00:38;21.90;76.60
30244;DHT22;64022;53.652;9.792;2022-10-16T01:03:32;21.90;76.60
30244;DHT22;64022;53.652;9.792;2022-10-16T01:08:54;21.90;76.60
30244;DHT22;64022;53.652;9.792;2022-10-16T01:11:40;21.90;76.60
30244;DHT22;64022;53.652;9.792;2022-10-16T01:14:28;21.90;76.60
30244;DHT22;64022;53.652;9.792;2022-10-16T01:17:02;21.90;76.50
30244;DHT22;64022;53.652;9.792;2022-10-16T01:22:38;21.90;76.50
30244;DHT22;64022;53.652;9.792;2022-10-16T01:25:09;21.90;76.60
30244;DHT22;64022;53.652;9.792;2022-10-16T01:27:38;21.90;76.60
30244;DHT22;64022;53.652;9.792;2022-10-16T01:30:23;21.80;76.50
30244;DHT22;64022;53.652;9.792;2022-10-16T01:33:17;21.90;76.50
30244;DHT22;64022;53.652;9.792;2022-10-16T01:35:54;21.90;76.40
30244;DHT22;64022;53.652;9.792;2022-10-16T01:38:29;21.90;76.50
30244;DHT22;64022;53.652;9.792;2022-10-16T01:41:10;21.90;76.50
30244;DHT22;64022;53.652;9.792;2022-10-16T01:43:42;21.90;76.50
30244;DHT22;64022;53.652;9.792;2022-10-16T01:46:13;21.80;76.50
30244;DHT22;64022;53.652;9.792;2022-10-16T01:48:39;21.80;76.40
30244;DHT22;64022;53.652;9.792;2022-10-16T01:51:11;21.80;76.40
30244;DHT22;64022;53.652;9.792;2022-10-16T01:53:40;21.80;76.40
30244;DHT22;64022;53.652;9.792;2022-10-16T01:56:09;21.80;76.40
30244;DHT22;64022;53.652;9.792;2022-10-16T01:58:42;21.80;76.40
30244;DHT22;64022;53.652;9.792;2022-10-16T02:01:11;21.80;76.30
30244;DHT22;64022;53.652;9.792;2022-10-16T02:03:40;21.80;76.30
30244;DHT22;64022;53.652;9.792;2022-10-16T02:06:07;21.80;76.30
30244;DHT22;64022;53.652;9.792;2022-10-16T02:08:34;21.80;76.30
30244;DHT22;64022;53.652;9.792;2022-10-16T02:11:01;21.90;76.40
30244;DHT22;64022;53.652;9.792;2022-10-16T02:13:35;21.90;76.40
30244;DHT22;64022;53.652;9.792;2022-10-16T02:16:02;21.80;76.30
30244;DHT22;64022;53.652;9.792;2022-10-16T02:18:28;21.80;76.30
30244;DHT22;64022;53.652;9.792;2022-10-16T02:21:10;21.80;76.30
30244;DHT22;64022;53.652;9.792;2022-10-16T02:26:33;21.80;76.20
30244;DHT22;64022;53.652;9.792;2022-10-16T02:29:03;21.80;76.20
30244;DHT22;64022;53.652;9.792;2022-10-16T02:31:33;21.80;76.30
30244;DHT22;64022;53.652;9.792;2022-10-16T02:34:01;21.80;76.20
30244;DHT22;64022;53.652;9.792;2022-10-16T02:36:28;21.80;76.20
30244;DHT22;64022;53.652;9.792;2022-10-16T02:38:54;21.80;76.20
30244;DHT22;64022;53.652;9.792;2022-10-16T02:41:22;21.80;76.20
30244;DHT22;64022;53.652;9.792;2022-10-16T02:43:48;21.80;76.20
30244;DHT22;64022;53.652;9.792;2022-10-16T02:46:15;21.80;76.20
30244;DHT22;64022;53.652;9.792;2022-10-16T02:48:40;21.80;76.10
30244;DHT22;64022;53.652;9.792;2022-10-16T02:51:06;21.70;76.20
30244;DHT22;64022;53.652;9.792;2022-10-16T02:53:31;21.70;76.20
30244;DHT22;64022;53.652;9.792;2022-10-16T02:55:57;21.80;76.20
30244;DHT22;64022;53.652;9.792;2022-10-16T02:58:22;21.70;76.20
30244;DHT22;64022;53.652;9.792;2022-10-16T03:00:48;21.70;76.10
30244;DHT22;64022;53.652;9.792;2022-10-16T03:03:13;21.70;76.10
30244;DHT22;64022;53.652;9.792;2022-10-16T03:05:39;21.70;76.10
30244;DHT22;64022;53.652;9.792;2022-10-16T03:08:04;21.70;76.10
30244;DHT22;64022;53.652;9.792;2022-10-16T03:10:30;21.70;76.10
30244;DHT22;64022;53.652;9.792;2022-10-16T03:12:56;21.70;76.10
30244;DHT22;64022;53.652;9.792;2022-10-16T03:15:21;21.70;76.10
30244;DHT22;64022;53.652;9.792;2022-10-16T03:17:47;21.70;76.00
30244;DHT22;64022;53.652;9.792;2022-10-16T03:20:12;21.70;76.10
30244;DHT22;64022;53.652;9.792;2022-10-16T03:22:38;21.80;76.10
30244;DHT22;64022;53.652;9.792;2022-10-16T03:25:04;21.80;76.10
30244;DHT22;64022;53.652;9.792;2022-10-16T03:27:30;21.70;76.00
30244;DHT22;64022;53.652;9.792;2022-10-16T03:29:56;21.70;76.00
30244;DHT22;64022;53.652;9.792;2022-10-16T03:32:21;21.70;76.00
30244;DHT22;64022;53.652;9.792;2022-10-16T03:34:47;21.70;76.00
30244;DHT22;64022;53.652;9.792;2022-10-16T03:37:12;21.70;76.00
30244;DHT22;64022;53.652;9.792;2022-10-16T03:39:38;21.70;76.00
30244;DHT22;64022;53.652;9.792;2022-10-16T03:42:03;21.70;75.90
30244;DHT22;64022;53.652;9.792;2022-10-16T03:44:29;21.70;76.00
30244;DHT22;64022;53.652;9.792;2022-10-16T03:46:55;21.70;76.00
30244;DHT22;64022;53.652;9.792;2022-10-16T03:49:20;21.70;75.90
30244;DHT22;64022;53.652;9.792;2022-10-16T03:51:46;21.70;75.90
30244;DHT22;64022;53.652;9.792;2022-10-16T03:54:12;21.70;75.90
30244;DHT22;64022;53.652;9.792;2022-10-16T03:56:38;21.70;75.90
30244;DHT22;64022;53.652;9.792;2022-10-16T03:59:03;21.70;75.90
30244;DHT22;64022;53.652;9.792;2022-10-16T04:01:29;21.70;75.90
30244;DHT22;64022;53.652;9.792;2022-10-16T04:03:54;21.70;75.90
30244;DHT22;64022;53.652;9.792;2022-10-16T04:06:20;21.70;75.90
30244;DHT22;64022;53.652;9.792;2022-10-16T04:08:45;21.70;75.90
30244;DHT22;64022;53.652;9.792;2022-10-16T04:11:11;21.70;75.90
30244;DHT22;64022;53.652;9.792;2022-10-16T04:13:37;21.70;75.90
30244;DHT22;64022;53.652;9.792;2022-10-16T04:16:03;21.70;75.90
30244;DHT22;64022;53.652;9.792;2022-10-16T04:18:28;21.70;75.80
30244;DHT22;64022;53.652;9.792;2022-10-16T04:20:54;21.60;76.30
30244;DHT22;64022;53.652;9.792;2022-10-16T04:23:20;21.60;75.80
30244;DHT22;64022;53.652;9.792;2022-10-16T04:25:48;21.60;75.80
30244;DHT22;64022;53.652;9.792;2022-10-16T04:28:13;21.60;75.80
30244;DHT22;64022;53.652;9.792;2022-10-16T04:30:39;21.70;75.80
30244;DHT22;64022;53.652;9.792;2022-10-16T04:33:04;21.60;75.80
30244;DHT22;64022;53.652;9.792;2022-10-16T04:35:30;21.70;75.80
30244;DHT22;64022;53.652;9.792;2022-10-16T04:37:57;21.60;75.80
30244;DHT22;64022;53.652;9.792;2022-10-16T04:40:23;21.60;76.00
30244;DHT22;64022;53.652;9.792;2022-10-16T04:42:48;21.60;75.70
30244;DHT22;64022;53.652;9.792;2022-10-16T04:45:14;21.60;75.80
30244;DHT22;64022;53.652;9.792;2022-10-16T04:47:39;21.60;75.70
30244;DHT22;64022;53.652;9.792;2022-10-16T04:50:05;21.60;75.70
30244;DHT22;64022;53.652;9.792;2022-10-16T04:52:31;21.60;75.70
30244;DHT22;64022;53.652;9.792;2022-10-16T04:54:57;21.60;75.70
30244;DHT22;64022;53.652;9.792;2022-10-16T04:57:26;21.60;76.20
30244;DHT22;64022;53.652;9.792;2022-10-16T04:59:52;21.60;75.70
30244;DHT22;64022;53.652;9.792;2022-10-16T05:02:17;21.60;75.80
30244;DHT22;64022;53.652;9.792;2022-10-16T05:04:43;21.60;75.70
30244;DHT22;64022;53.652;9.792;2022-10-16T05:07:09;21.60;75.70
30244;DHT22;64022;53.652;9.792;2022-10-16T05:09:34;21.60;75.70
30244;DHT22;64022;53.652;9.792;2022-10-16T05:12:00;21.60;75.70
30244;DHT22;64022;53.652;9.792;2022-10-16T05:14:25;21.60;75.70
30244;DHT22;64022;53.652;9.792;2022-10-16T05:16:50;21.60;75.70
30244;DHT22;64022;53.652;9.792;2022-10-16T05:19:17;21.60;75.70
30244;DHT22;64022;53.652;9.792;2022-10-16T05:21:42;21.60;75.60
30244;DHT22;64022;53.652;9.792;2022-10-16T05:24:08;21.60;75.60
30244;DHT22;64022;53.652;9.792;2022-10-16T05:26:34;21.60;75.60
30244;DHT22;64022;53.652;9.792;2022-10-16T05:29:00;21.60;75.60
30244;DHT22;64022;53.652;9.792;2022-10-16T05:31:26;21.60;75.60
30244;DHT22;64022;53.652;9.792;2022-10-16T05:33:51;21.60;75.60
30244;DHT22;64022;53.652;9.792;2022-10-16T05:36:17;21.60;75.50
30244;DHT22;64022;53.652;9.792;2022-10-16T05:38:43;21.50;75.50
30244;DHT22;64022;53.652;9.792;2022-10-16T05:41:09;21.50;75.50
30244;DHT22;64022;53.652;9.792;2022-10-16T05:43:35;21.50;75.50
30244;DHT22;64022;53.652;9.792;2022-10-16T05:46:03;21.60;75.50
30244;DHT22;64022;53.652;9.792;2022-10-16T05:48:29;21.50;75.40
30244;DHT22;64022;53.652;9.792;2022-10-16T05:51:03;21.50;75.40
30244;DHT22;64022;53.652;9.792;2022-10-16T05:53:31;21.50;75.60
30244;DHT22;64022;53.652;9.792;2022-10-16T05:55:57;21.50;75.40
30244;DHT22;64022;53.652;9.792;2022-10-16T05:58:24;21.50;75.40
30244;DHT22;64022;53.652;9.792;2022-10-16T06:00:59;21.60;75.40
30244;DHT22;64022;53.652;9.792;2022-10-16T06:03:25;21.60;75.40
30244;DHT22;64022;53.652;9.792;2022-10-16T06:05:51;21.50;75.30
30244;DHT22;64022;53.652;9.792;2022-10-16T06:08:17;21.50;75.30
30244;DHT22;64022;53.652;9.792;2022-10-16T06:10:44;21.50;75.30
30244;DHT22;64022;53.652;9.792;2022-10-16T06:13:10;21.50;75.30
30244;DHT22;64022;53.652;9.792;2022-10-16T06:15:35;21.50;75.30
30244;DHT22;64022;53.652;9.792;2022-10-16T06:18:01;21.50;75.30
30244;DHT22;64022;53.652;9.792;2022-10-16T06:20:26;21.60;75.30
30244;DHT22;64022;53.652;9.792;2022-10-16T06:22:52;21.50;75.20
30244;DHT22;64022;53.652;9.792;2022-10-16T06:25:17;21.50;75.20
30244;DHT22;64022;53.652;9.792;2022-10-16T06:27:43;21.60;75.30
30244;DHT22;64022;53.652;9.792;2022-10-16T06:30:09;21.60;75.20
30244;DHT22;64022;53.652;9.792;2022-10-16T06:32:34;21.50;75.20
30244;DHT22;64022;53.652;9.792;2022-10-16T06:35:00;21.50;75.20
30244;DHT22;64022;53.652;9.792;2022-10-16T06:37:27;21.60;75.20
30244;DHT22;64022;53.652;9.792;2022-10-16T06:39:52;21.60;75.20
30244;DHT22;64022;53.652;9.792;2022-10-16T06:42:18;21.50;75.00
30244;DHT22;64022;53.652;9.792;2022-10-16T06:44:44;21.50;75.20
30244;DHT22;64022;53.652;9.792;2022-10-16T06:47:09;21.50;75.20
30244;DHT22;64022;53.652;9.792;2022-10-16T06:49:35;21.50;75.20
30244;DHT22;64022;53.652;9.792;2022-10-16T06:52:01;21.60;75.20
30244;DHT22;64022;53.652;9.792;2022-10-16T06:54:27;21.60;75.10
30244;DHT22;64022;53.652;9.792;2022-10-16T06:56:52;21.60;75.20
30244;DHT22;64022;53.652;9.792;2022-10-16T06:59:22;21.60;75.10
30244;DHT22;64022;53.652;9.792;2022-10-16T07:01:48;21.60;75.00
30244;DHT22;64022;53.652;9.792;2022-10-16T07:04:14;21.60;75.00
30244;DHT22;64022;53.652;9.792;2022-10-16T07:06:40;21.60;75.10
30244;DHT22;64022;53.652;9.792;2022-10-16T07:09:08;21.70;75.20
30244;DHT22;64022;53.652;9.792;2022-10-16T07:11:35;21.60;75.00
30244;DHT22;64022;53.652;9.792;2022-10-16T07:14:02;21.60;75.10
30244;DHT22;64022;53.652;9.792;2022-10-16T07:16:30;21.70;75.20
30244;DHT22;64022;53.652;9.792;2022-10-16T07:18:57;21.70;75.20
30244;DHT22;64022;53.652;9.792;2022-10-16T07:21:25;21.70;75.20
30244;DHT22;64022;53.652;9.792;2022-10-16T07:23:58;21.70;75.20
30244;DHT22;64022;53.652;9.792;2022-10-16T07:26:25;21.70;75.10
30244;DHT22;64022;53.652;9.792;2022-10-16T07:28:51;21.80;75.20
30244;DHT22;64022;53.652;9.792;2022-10-16T07:31:18;21.80;75.10
30244;DHT22;64022;53.652;9.792;2022-10-16T07:33:45;21.80;75.10
30244;DHT22;64022;53.652;9.792;2022-10-16T07:36:13;21.90;75.00
30244;DHT22;64022;53.652;9.792;2022-10-16T07:38:39;22.00;75.00
30244;DHT22;64022;53.652;9.792;2022-10-16T07:41:07;22.00;74.90
30244;DHT22;64022;53.652;9.792;2022-10-16T07:43:33;22.00;74.80
30244;DHT22;64022;53.652;9.792;2022-10-16T07:45:59;22.00;74.80
30244;DHT22;64022;53.652;9.792;2022-10-16T07:48:28;22.10;74.80
30244;DHT22;64022;53.652;9.792;2022-10-16T07:50:57;22.10;74.60
30244;DHT22;64022;53.652;9.792;2022-10-16T07:53:23;22.10;74.50
30244;DHT22;64022;53.652;9.792;2022-10-16T07:55:49;22.10;74.50
30244;DHT22;64022;53.652;9.792;2022-10-16T07:58:14;22.10;74.40
30244;DHT22;64022;53.652;9.792;2022-10-16T08:00:40;22.10;74.40
30244;DHT22;64022;53.652;9.792;2022-10-16T08:03:05;22.10;74.40
30244;DHT22;64022;53.652;9.792;2022-10-16T08:05:32;22.10;74.40
30244;DHT22;64022;53.652;9.792;2022-10-16T08:07:57;22.20;74.30
30244;DHT22;64022;53.652;9.792;2022-10-16T08:10:24;22.10;74.70
30244;DHT22;64022;53.652;9.792;2022-10-16T08:12:50;22.10;74.40
30244;DHT22;64022;53.652;9.792;2022-10-16T08:15:16;22.20;74.40
30244;DHT22;64022;53.652;9.792;2022-10-16T08:17:42;22.30;74.40
30244;DHT22;64022;53.652;9.792;2022-10-16T08:20:08;22.30;74.20
30244;DHT22;64022;53.652;9.792;2022-10-16T08:22:34;22.40;74.20
30244;DHT22;64022;53.652;9.792;2022-10-16T08:25:00;22.40;71.10
30244;DHT22;64022;53.652;9.792;2022-10-16T08:27:31;22.40;70.30
30244;DHT22;64022;53.652;9.792;2022-10-16T08:29:56;22.30;69.60
30244;DHT22;64022;53.652;9.792;2022-10-16T08:32:22;22.20;69.40
30244;DHT22;64022;53.652;9.792;2022-10-16T08:34:47;22.10;69.30
30244;DHT22;64022;53.652;9.792;2022-10-16T08:37:13;22.00;69.40
30244;DHT22;64022;53.652;9.792;2022-10-16T08:39:39;21.90;69.10
30244;DHT22;64022;53.652;9.792;2022-10-16T08:42:11;21.80;69.10
30244;DHT22;64022;53.652;9.792;2022-10-16T08:47:13;21.70;69.30
30244;DHT22;64022;53.652;9.792;2022-10-16T08:49:55;21.70;69.20
30244;DHT22;64022;53.652;9.792;2022-10-16T08:52:21;21.70;69.40
30244;DHT22;64022;53.652;9.792;2022-10-16T08:54:51;21.70;69.50
30244;DHT22;64022;53.652;9.792;2022-10-16T08:57:21;21.60;69.30
30244;DHT22;64022;53.652;9.792;2022-10-16T08:59:47;21.60;69.40
30244;DHT22;64022;53.652;9.792;2022-10-16T09:02:39;21.60;69.90
30244;DHT22;64022;53.652;9.792;2022-10-16T09:11:29;21.90;71.10
30244;DHT22;64022;53.652;9.792;2022-10-16T09:14:08;21.90;71.30
30244;DHT22;64022;53.652;9.792;2022-10-16T09:16:46;21.90;71.40
30244;DHT22;64022;53.652;9.792;2022-10-16T09:19:24;22.00;71.40
30244;DHT22;64022;53.652;9.792;2022-10-16T09:21:51;22.00;71.40
30244;DHT22;64022;53.652;9.792;2022-10-16T09:24:20;22.10;71.30
30244;DHT22;64022;53.652;9.792;2022-10-16T09:26:47;22.10;71.30
30244;DHT22;64022;53.652;9.792;2022-10-16T09:29:17;22.10;71.20
30244;DHT22;64022;53.652;9.792;2022-10-16T09:31:45;22.10;71.20
30244;DHT22;64022;53.652;9.792;2022-10-16T09:34:32;22.20;71.20
30244;DHT22;64022;53.652;9.792;2022-10-16T09:37:01;22.20;71.10
30244;DHT22;64022;53.652;9.792;2022-10-16T09:39:28;22.20;71.20
30244;DHT22;64022;53.652;9.792;2022-10-16T09:41:55;22.20;71.10
30244;DHT22;64022;53.652;9.792;2022-10-16T09:44:24;22.20;71.10
30244;DHT22;64022;53.652;9.792;2022-10-16T09:47:12;22.20;71.10
30244;DHT22;64022;53.652;9.792;2022-10-16T09:49:38;22.20;71.00
30244;DHT22;64022;53.652;9.792;2022-10-16T09:52:05;22.20;71.10
30244;DHT22;64022;53.652;9.792;2022-10-16T09:54:31;22.20;71.10
30244;DHT22;64022;53.652;9.792;2022-10-16T09:57:07;22.20;71.00
30244;DHT22;64022;53.652;9.792;2022-10-16T09:59:33;22.20;71.00
30244;DHT22;64022;53.652;9.792;2022-10-16T10:02:03;22.20;71.10
30244;DHT22;64022;53.652;9.792;2022-10-16T10:04:48;22.20;71.00
30244;DHT22;64022;53.652;9.792;2022-10-16T10:07:30;22.20;70.90
30244;DHT22;64022;53.652;9.792;2022-10-16T10:10:00;22.20;71.00
30244;DHT22;64022;53.652;9.792;2022-10-16T10:12:31;22.20;71.00
30244;DHT22;64022;53.652;9.792;2022-10-16T10:15:10;22.20;71.00
30244;DHT22;64022;53.652;9.792;2022-10-16T10:17:49;22.20;71.00
30244;DHT22;64022;53.652;9.792;2022-10-16T10:20:22;22.20;71.00
30244;DHT22;64022;53.652;9.792;2022-10-16T10:22:50;22.20;71.00
30244;DHT22;64022;53.652;9.792;2022-10-16T10:28:26;22.20;71.00
30244;DHT22;64022;53.652;9.792;2022-10-16T10:30:56;22.20;71.00
30244;DHT22;64022;53.652;9.792;2022-10-16T10:33:31;22.20;71.10
30244;DHT22;64022;53.652;9.792;2022-10-16T10:38:51;22.30;71.10
30244;DHT22;64022;53.652;9.792;2022-10-16T10:50:28;22.20;70.90
30244;DHT22;64022;53.652;9.792;2022-10-16T11:07:17;22.20;71.20
30244;DHT22;64022;53.652;9.792;2022-10-16T11:09:52;22.20;71.20
30244;DHT22;64022;53.652;9.792;2022-10-16T11:12:21;22.30;71.40
30244;DHT22;64022;53.652;9.792;2022-10-16T11:15:21;22.30;71.50
30244;DHT22;64022;53.652;9.792;2022-10-16T11:17:49;22.30;71.50
30244;DHT22;64022;53.652;9.792;2022-10-16T11:20:23;22.30;71.70
30244;DHT22;64022;53.652;9.792;2022-10-16T11:23:44;22.30;71.70
30244;DHT22;64022;53.652;9.792;2022-10-16T11:25:45;22.30;71.70
30244;DHT22;64022;53.652;9.792;2022-10-16T11:28:19;22.30;71.70
30244;DHT22;64022;53.652;9.792;2022-10-16T11:30:47;22.30;71.80
30244;DHT22;64022;53.652;9.792;2022-10-16T11:35:53;22.40;71.90
30244;DHT22;64022;53.652;9.792;2022-10-16T11:38:43;22.40;72.00
30244;DHT22;64022;53.652;9.792;2022-10-16T11:41:35;22.40;71.90
30244;DHT22;64022;53.652;9.792;2022-10-16T11:46:58;22.40;72.00
30244;DHT22;64022;53.652;9.792;2022-10-16T11:49:26;22.40;72.30
30244;DHT22;64022;53.652;9.792;2022-10-16T11:57:57;22.40;72.40
30244;DHT22;64022;53.652;9.792;2022-10-16T12:00:27;22.40;72.70
30244;DHT22;64022;53.652;9.792;2022-10-16T12:03:56;22.50;72.90
30244;DHT22;64022;53.652;9.792;2022-10-16T12:08:35;22.50;73.00
30244;DHT22;64022;53.652;9.792;2022-10-16T12:13:48;22.50;72.80
30244;DHT22;64022;53.652;9.792;2022-10-16T12:18:46;22.50;73.00
30244;DHT22;64022;53.652;9.792;2022-10-16T12:21:16;22.50;73.00
30244;DHT22;64022;53.652;9.792;2022-10-16T12:23:53;22.50;73.10
30244;DHT22;64022;53.652;9.792;2022-10-16T12:26:27;22.50;73.10
30244;DHT22;64022;53.652;9.792;2022-10-16T12:28:54;22.50;73.10
30244;DHT22;64022;53.652;9.792;2022-10-16T12:31:20;22.50;73.10
30244;DHT22;64022;53.652;9.792;2022-10-16T12:34:20;22.50;73.00
30244;DHT22;64022;53.652;9.792;2022-10-16T12:36:48;22.50;73.00
30244;DHT22;64022;53.652;9.792;2022-10-16T12:39:24;22.50;73.10
30244;DHT22;64022;53.652;9.792;2022-10-16T12:42:05;22.50;73.20
30244;DHT22;64022;53.652;9.792;2022-10-16T12:44:35;22.50;73.20
30244;DHT22;64022;53.652;9.792;2022-10-16T12:47:02;22.50;73.30
30244;DHT22;64022;53.652;9.792;2022-10-16T12:51:53;22.60;73.40
30244;DHT22;64022;53.652;9.792;2022-10-16T12:54:35;22.60;73.40
30244;DHT22;64022;53.652;9.792;2022-10-16T13:00:12;22.60;73.40
30244;DHT22;64022;53.652;9.792;2022-10-16T13:16:30;22.60;70.50
30244;DHT22;64022;53.652;9.792;2022-10-16T13:21:56;22.60;70.40
30244;DHT22;64022;53.652;9.792;2022-10-16T13:24:42;22.60;69.80
30244;DHT22;64022;53.652;9.792;2022-10-16T13:27:24;22.60;70.00
30244;DHT22;64022;53.652;9.792;2022-10-16T13:30:02;22.60;69.40
30244;DHT22;64022;53.652;9.792;2022-10-16T13:32:28;22.50;69.10
30244;DHT22;64022;53.652;9.792;2022-10-16T13:34:54;22.60;69.30
30244;DHT22;64022;53.652;9.792;2022-10-16T13:37:21;22.60;68.90
30244;DHT22;64022;53.652;9.792;2022-10-16T13:39:47;22.60;68.50
30244;DHT22;64022;53.652;9.792;2022-10-16T13:42:25;22.50;68.40
30244;DHT22;64022;53.652;9.792;2022-10-16T13:44:53;22.60;68.50
30244;DHT22;64022;53.652;9.792;2022-10-16T13:47:22;22.60;68.40
30244;DHT22;64022;53.652;9.792;2022-10-16T13:50:06;22.60;68.40
30244;DHT22;64022;53.652;9.792;2022-10-16T13:52:35;22.60;68.50
30244;DHT22;64022;53.652;9.792;2022-10-16T13:55:00;22.60;68.00
30244;DHT22;64022;53.652;9.792;2022-10-16T13:57:26;22.60;67.70
30244;DHT22;64022;53.652;9.792;2022-10-16T13:59:53;22.60;67.80
30244;DHT22;64022;53.652;9.792;2022-10-16T14:02:39;22.60;67.50
30244;DHT22;64022;53.652;9.792;2022-10-16T14:05:09;22.60;68.20
30244;DHT22;64022;53.652;9.792;2022-10-16T14:07:37;22.60;67.30
30244;DHT22;64022;53.652;9.792;2022-10-16T14:10:06;22.60;67.20
30244;DHT22;64022;53.652;9.792;2022-10-16T14:12:32;22.60;67.20
30244;DHT22;64022;53.652;9.792;2022-10-16T14:14:59;22.60;67.20
30244;DHT22;64022;53.652;9.792;2022-10-16T14:17:32;22.60;67.10
30244;DHT22;64022;53.652;9.792;2022-10-16T14:20:02;22.60;67.30
30244;DHT22;64022;53.652;9.792;2022-10-16T14:24:56;22.50;66.80
30244;DHT22;64022;53.652;9.792;2022-10-16T14:27:35;22.50;66.90
30244;DHT22;64022;53.652;9.792;2022-10-16T14:30:17;22.50;66.80
30244;DHT22;64022;53.652;9.792;2022-10-16T14:32:54;22.50;66.70
30244;DHT22;64022;53.652;9.792;2022-10-16T14:35:35;22.50;66.70
30244;DHT22;64022;53.652;9.792;2022-10-16T14:38:03;22.50;66.50
30244;DHT22;64022;53.652;9.792;2022-10-16T14:40:31;22.50;66.40
30244;DHT22;64022;53.652;9.792;2022-10-16T14:42:58;22.50;66.30
30244;DHT22;64022;53.652;9.792;2022-10-16T14:45:27;22.60;66.20
30244;DHT22;64022;53.652;9.792;2022-10-16T14:47:58;22.60;66.30
30244;DHT22;64022;53.652;9.792;2022-10-16T14:50:25;22.60;66.40
30244;DHT22;64022;53.652;9.792;2022-10-16T14:52:50;22.60;66.50
30244;DHT22;64022;53.652;9.792;2022-10-16T14:55:17;22.60;66.10
30244;DHT22;64022;53.652;9.792;2022-10-16T14:57:43;22.60;66.90
30244;DHT22;64022;53.652;9.792;2022-10-16T15:00:30;22.60;67.30
30244;DHT22;64022;53.652;9.792;2022-10-16T15:02:55;22.60;67.70
30244;DHT22;64022;53.652;9.792;2022-10-16T15:05:26;22.60;67.80
30244;DHT22;64022;53.652;9.792;2022-10-16T15:07:52;22.60;67.90
30244;DHT22;64022;53.652;9.792;2022-10-16T15:10:20;22.60;68.10
30244;DHT22;64022;53.652;9.792;2022-10-16T15:12:46;22.70;68.20
30244;DHT22;64022;53.652;9.792;2022-10-16T15:15:36;22.70;68.40
30244;DHT22;64022;53.652;9.792;2022-10-16T15:18:03;22.70;68.20
30244;DHT22;64022;53.652;9.792;2022-10-16T15:20:32;22.70;68.60
30244;DHT22;64022;53.652;9.792;2022-10-16T15:23:00;22.70;68.80
30244;DHT22;64022;53.652;9.792;2022-10-16T15:25:38;22.70;68.80
30244;DHT22;64022;53.652;9.792;2022-10-16T15:28:07;22.70;68.80
30244;DHT22;64022;53.652;9.792;2022-10-16T15:30:33;22.70;69.00
30244;DHT22;64022;53.652;9.792;2022-10-16T15:32:59;22.70;69.10
30244;DHT22;64022;53.652;9.792;2022-10-16T15:35:25;22.70;69.20
30244;DHT22;64022;53.652;9.792;2022-10-16T15:37:51;22.70;69.20
30244;DHT22;64022;53.652;9.792;2022-10-16T15:40:18;22.70;69.30
30244;DHT22;64022;53.652;9.792;2022-10-16T15:42:44;22.70;69.40
30244;DHT22;64022;53.652;9.792;2022-10-16T15:45:10;22.70;69.50
30244;DHT22;64022;53.652;9.792;2022-10-16T15:47:36;22.70;69.60
30244;DHT22;64022;53.652;9.792;2022-10-16T15:50:03;22.70;69.60
30244;DHT22;64022;53.652;9.792;2022-10-16T15:52:29;22.70;69.70
30244;DHT22;64022;53.652;9.792;2022-10-16T15:54:57;22.70;69.80
30244;DHT22;64022;53.652;9.792;2022-10-16T15:57:22;22.70;69.90
30244;DHT22;64022;53.652;9.792;2022-10-16T15:59:49;22.70;69.90
30244;DHT22;64022;53.652;9.792;2022-10-16T16:02:14;22.70;70.00
30244;DHT22;64022;53.652;9.792;2022-10-16T16:04:40;22.70;70.00
30244;DHT22;64022;53.652;9.792;2022-10-16T16:07:05;22.70;70.10
30244;DHT22;64022;53.652;9.792;2022-10-16T16:09:33;22.70;70.60
30244;DHT22;64022;53.652;9.792;2022-10-16T16:11:58;22.70;70.10
30244;DHT22;64022;53.652;9.792;2022-10-16T16:14:26;22.70;71.30
30244;DHT22;64022;53.652;9.792;2022-10-16T16:16:56;22.70;71.60
30244;DHT22;64022;53.652;9.792;2022-10-16T16:19:22;22.70;72.00
30244;DHT22;64022;53.652;9.792;2022-10-16T16:21:49;22.70;66.50
30244;DHT22;64022;53.652;9.792;2022-10-16T16:24:14;22.50;63.60
30244;DHT22;64022;53.652;9.792;2022-10-16T16:26:40;22.30;64.00
30244;DHT22;64022;53.652;9.792;2022-10-16T16:29:11;22.20;66.10
30244;DHT22;64022;53.652;9.792;2022-10-16T16:31:38;22.20;67.70
30244;DHT22;64022;53.652;9.792;2022-10-16T16:34:03;22.20;67.60
30244;DHT22;64022;53.652;9.792;2022-10-16T16:36:29;22.30;68.00
30244;DHT22;64022;53.652;9.792;2022-10-16T16:38:56;22.30;68.20
30244;DHT22;64022;53.652;9.792;2022-10-16T16:41:24;22.30;68.40
30244;DHT22;64022;53.652;9.792;2022-10-16T16:43:51;22.30;68.60
30244;DHT22;64022;53.652;9.792;2022-10-16T16:46:17;22.40;68.80
30244;DHT22;64022;53.652;9.792;2022-10-16T16:48:43;22.40;69.00
30244;DHT22;64022;53.652;9.792;2022-10-16T16:51:12;22.40;69.10
30244;DHT22;64022;53.652;9.792;2022-10-16T16:53:41;22.40;69.20
30244;DHT22;64022;53.652;9.792;2022-10-16T16:56:07;22.40;69.40
30244;DHT22;64022;53.652;9.792;2022-10-16T16:58:33;22.40;69.50
30244;DHT22;64022;53.652;9.792;2022-10-16T17:00:59;22.50;69.70
30244;DHT22;64022;53.652;9.792;2022-10-16T17:03:28;22.40;69.70
30244;DHT22;64022;53.652;9.792;2022-10-16T17:06:02;22.40;69.80
30244;DHT22;64022;53.652;9.792;2022-10-16T17:08:28;22.50;69.80
30244;DHT22;64022;53.652;9.792;2022-10-16T17:10:54;22.40;70.00
30244;DHT22;64022;53.652;9.792;2022-10-16T17:13:31;22.40;70.00